createdAt,value
2022-12-29T00:00:20.998Z,1.70
2022-12-29T00:02:48.246Z,5.35
2022-12-29T00:05:15.361Z,2.38
2022-12-29T00:07:42.416Z,2.85
2022-12-29T00:10:09.680Z,2.63
2022-12-29T00:12:56.574Z,2.20
2022-12-29T00:15:38.792Z,2.47
2022-12-29T00:18:06.533Z,1.23
2022-12-29T00:20:56.783Z,2.13
2022-12-29T00:23:43.046Z,2.15
2022-12-29T00:26:34.760Z,4.10
2022-12-29T00:29:19.940Z,4.50
2022-12-29T00:32:08.293Z,3.05
2022-12-29T00:34:54.520Z,2.47
2022-12-29T00:37:44.438Z,4.65
2022-12-29T00:40:30.201Z,2.05
2022-12-29T00:43:18.611Z,3.88
2022-12-29T00:45:48.580Z,5.35
2022-12-29T00:48:38.184Z,2.65
2022-12-29T00:51:34.849Z,3.45
2022-12-29T00:54:12.893Z,1.75
2022-12-29T00:56:42.259Z,2.55
2022-12-29T00:59:11.375Z,6.35
2022-12-29T01:01:39.299Z,7.72
2022-12-29T01:04:06.978Z,3.33
2022-12-29T01:06:35.010Z,2.42
2022-12-29T01:09:22.597Z,1.33
2022-12-29T01:11:49.694Z,4.30
2022-12-29T01:14:20.783Z,4.97
2022-12-29T01:16:56.722Z,4.32
2022-12-29T01:19:24.353Z,3.30
2022-12-29T01:21:52.781Z,2.55
2022-12-29T01:24:21.736Z,4.50
2022-12-29T01:26:49.505Z,3.92
2022-12-29T01:29:18.883Z,4.43
2022-12-29T01:31:50.791Z,4.30
2022-12-29T01:34:18.773Z,4.55
2022-12-29T01:36:46.758Z,7.43
2022-12-29T01:39:14.340Z,5.22
2022-12-29T01:41:45.244Z,3.08
2022-12-29T01:44:49.458Z,5.13
2022-12-29T01:47:45.127Z,7.50
2022-12-29T01:50:18.927Z,2.22
2022-12-29T01:53:10.296Z,3.35
2022-12-29T01:55:50.942Z,2.38
2022-12-29T01:58:22.769Z,2.10
2022-12-29T02:00:50.884Z,3.58
2022-12-29T02:03:22.726Z,2.60
2022-12-29T02:06:09.587Z,5.32
2022-12-29T02:08:40.096Z,4.45
2022-12-29T02:11:08.143Z,1.70
2022-12-29T02:13:35.623Z,2.13
2022-12-29T02:16:22.141Z,3.25
2022-12-29T02:19:09.643Z,2.15
2022-12-29T02:22:04.092Z,0.85
2022-12-29T02:24:52.696Z,4.43
2022-12-29T02:27:42.168Z,2.15
2022-12-29T02:30:16.260Z,1.90
2022-12-29T02:33:07.520Z,2.17
2022-12-29T02:35:44.588Z,4.30
2022-12-29T02:38:54.485Z,3.08
2022-12-29T02:41:50.834Z,5.32
2022-12-29T02:44:28.670Z,7.43
2022-12-29T02:47:04.842Z,5.40
2022-12-29T02:49:42.985Z,4.07
2022-12-29T02:52:26.344Z,7.45
2022-12-29T02:54:55.624Z,5.82
2022-12-29T02:57:22.468Z,2.03
2022-12-29T02:59:58.059Z,2.30
2022-12-29T03:02:50.934Z,3.42
2022-12-29T03:08:34.187Z,5.28
2022-12-29T03:11:28.492Z,7.88
2022-12-29T03:14:49.592Z,5.40
2022-12-29T03:17:40.062Z,6.82
2022-12-29T03:20:19.155Z,4.68
2022-12-29T03:22:51.033Z,4.53
2022-12-29T03:25:36.528Z,3.20
2022-12-29T03:28:14.036Z,3.42
2022-12-29T03:30:47.531Z,4.25
2022-12-29T03:33:23.851Z,3.13
2022-12-29T03:35:54.741Z,2.90
2022-12-29T03:38:28.761Z,6.15
2022-12-29T03:41:03.117Z,6.13
2022-12-29T03:43:30.956Z,6.55
2022-12-29T03:46:01.185Z,3.83
2022-12-29T03:48:28.167Z,4.95
2022-12-29T03:50:57.304Z,5.00
2022-12-29T03:53:25.664Z,7.65
2022-12-29T03:56:23.634Z,13.82
2022-12-29T03:58:52.400Z,6.47
2022-12-29T04:01:26.077Z,8.23
2022-12-29T04:03:54.375Z,4.80
2022-12-29T04:06:21.312Z,6.10
2022-12-29T04:09:04.018Z,2.10
2022-12-29T04:11:34.815Z,8.90
2022-12-29T04:14:04.885Z,5.28
2022-12-29T04:16:36.569Z,6.90
2022-12-29T04:19:05.253Z,6.07
2022-12-29T04:21:33.089Z,2.78
2022-12-29T04:24:03.227Z,10.88
2022-12-29T04:26:34.293Z,4.75
2022-12-29T04:29:12.948Z,5.32
2022-12-29T04:32:03.176Z,3.13
2022-12-29T04:34:34.295Z,8.65
2022-12-29T04:37:01.331Z,2.90
2022-12-29T04:39:29.158Z,4.25
2022-12-29T04:41:56.343Z,5.95
2022-12-29T04:44:24.215Z,5.78
2022-12-29T04:47:24.388Z,5.38
2022-12-29T04:50:17.657Z,6.07
2022-12-29T04:52:55.419Z,10.25
2022-12-29T04:55:22.488Z,7.65
2022-12-29T04:57:50.483Z,11.95
2022-12-29T05:00:19.930Z,10.50
2022-12-29T05:02:48.032Z,1.95
2022-12-29T05:05:16.079Z,4.80
2022-12-29T05:07:48.388Z,7.70
2022-12-29T05:10:15.478Z,6.65
2022-12-29T05:12:42.819Z,6.32
2022-12-29T05:15:11.693Z,8.60
2022-12-29T05:17:39.564Z,5.72
2022-12-29T05:20:08.936Z,5.47
2022-12-29T05:22:37.927Z,9.02
2022-12-29T05:25:07.655Z,4.78
2022-12-29T05:27:46.118Z,8.95
2022-12-29T05:30:25.319Z,8.07
2022-12-29T05:32:54.811Z,6.80
2022-12-29T05:35:22.694Z,5.05
2022-12-29T05:37:49.758Z,6.85
2022-12-29T05:40:16.741Z,8.43
2022-12-29T05:42:44.705Z,8.48
2022-12-29T05:45:33.882Z,9.98
2022-12-29T05:48:29.550Z,3.55
2022-12-29T05:51:25.413Z,8.98
2022-12-29T05:53:54.227Z,11.52
2022-12-29T05:56:23.592Z,10.65
2022-12-29T05:58:58.454Z,9.45
2022-12-29T06:01:25.490Z,11.10
2022-12-29T06:03:53.443Z,9.02
2022-12-29T06:06:21.762Z,7.60
2022-12-29T06:08:48.763Z,11.52
2022-12-29T06:11:15.809Z,9.73
2022-12-29T06:13:49.808Z,11.60
2022-12-29T06:16:16.789Z,14.02
2022-12-29T06:18:44.902Z,7.60
2022-12-29T06:21:11.905Z,6.35
2022-12-29T06:23:39.687Z,7.72
2022-12-29T06:26:10.139Z,8.52
2022-12-29T06:28:41.823Z,8.65
2022-12-29T06:31:12.810Z,7.55
2022-12-29T06:33:40.195Z,10.05
2022-12-29T06:36:07.736Z,12.88
2022-12-29T06:38:36.207Z,10.68
2022-12-29T06:41:03.150Z,7.95
2022-12-29T06:46:16.075Z,4.95
2022-12-29T06:48:44.128Z,9.45
2022-12-29T06:51:13.187Z,10.13
2022-12-29T06:53:42.265Z,7.65
2022-12-29T06:56:09.110Z,10.98
2022-12-29T06:58:36.130Z,9.45
2022-12-29T07:01:03.061Z,10.73
2022-12-29T07:03:30.306Z,7.85
2022-12-29T07:05:59.021Z,10.52
2022-12-29T07:08:26.167Z,4.18
2022-12-29T07:10:53.016Z,11.93
2022-12-29T07:13:20.229Z,8.02
2022-12-29T07:15:47.762Z,10.98
2022-12-29T07:18:14.665Z,11.52
2022-12-29T07:20:41.569Z,10.73
2022-12-29T07:23:08.580Z,6.57
2022-12-29T07:25:36.948Z,12.30
2022-12-29T07:28:04.908Z,9.85
2022-12-29T07:30:31.866Z,13.48
2022-12-29T07:32:58.711Z,15.52
2022-12-29T07:35:25.601Z,9.93
2022-12-29T07:37:53.558Z,13.02
2022-12-29T07:40:20.671Z,8.82
2022-12-29T07:42:51.110Z,14.80
2022-12-29T07:45:28.090Z,10.23
2022-12-29T07:48:08.694Z,10.00
2022-12-29T07:50:37.130Z,10.38
2022-12-29T07:53:04.341Z,11.75
2022-12-29T07:55:32.505Z,11.55
2022-12-29T07:58:00.453Z,10.50
2022-12-29T08:00:27.450Z,4.53
2022-12-29T08:02:54.870Z,12.57
2022-12-29T08:05:23.168Z,12.15
2022-12-29T08:07:52.033Z,7.35
2022-12-29T08:10:19.108Z,8.25
2022-12-29T08:12:46.063Z,9.60
2022-12-29T08:15:14.073Z,4.95
2022-12-29T08:17:41.401Z,12.25
2022-12-29T08:20:15.632Z,14.10
2022-12-29T08:22:46.523Z,15.48
2022-12-29T08:25:14.108Z,8.02
2022-12-29T08:27:41.964Z,11.57
2022-12-29T08:30:10.822Z,14.25
2022-12-29T08:32:37.657Z,7.93
2022-12-29T08:35:06.010Z,6.57
2022-12-29T08:37:34.306Z,7.38
2022-12-29T08:40:04.607Z,10.07
2022-12-29T08:42:34.656Z,9.25
2022-12-29T08:45:03.977Z,14.40
2022-12-29T08:47:30.852Z,13.13
2022-12-29T08:49:58.807Z,8.73
2022-12-29T08:52:26.760Z,14.60
2022-12-29T08:54:53.852Z,15.05
2022-12-29T08:57:25.833Z,17.25
2022-12-29T09:00:06.098Z,17.52
2022-12-29T09:02:34.273Z,9.77
2022-12-29T09:05:05.396Z,13.38
2022-12-29T09:07:58.558Z,14.23
2022-12-29T09:10:25.374Z,14.07
2022-12-29T09:12:53.327Z,7.43
2022-12-29T09:15:20.570Z,13.52
2022-12-29T09:17:47.448Z,13.77
2022-12-29T09:20:17.049Z,19.45
2022-12-29T09:22:44.679Z,9.70
2022-12-29T09:25:12.812Z,12.40
2022-12-29T09:27:40.043Z,16.70
2022-12-29T09:30:10.188Z,14.05
2022-12-29T09:32:44.578Z,13.35
2022-12-29T09:35:12.734Z,16.88
2022-12-29T09:37:39.781Z,13.23
2022-12-29T09:40:08.497Z,11.95
2022-12-29T09:42:38.448Z,13.50
2022-12-29T09:45:09.512Z,8.55
2022-12-29T09:47:36.967Z,14.07
2022-12-29T09:50:18.319Z,12.77
2022-12-29T09:53:05.329Z,14.93
2022-12-29T09:55:39.240Z,6.25
2022-12-29T09:58:43.746Z,11.77
2022-12-29T10:01:28.567Z,17.95
2022-12-29T10:04:00.675Z,10.18
2022-12-29T10:07:28.415Z,12.65
2022-12-29T10:10:08.689Z,11.13
2022-12-29T10:12:55.819Z,30.30
2022-12-29T10:15:32.799Z,6.13
2022-12-29T10:18:28.960Z,11.45
2022-12-29T10:21:23.822Z,18.17
2022-12-29T10:23:53.951Z,14.70
2022-12-29T10:26:26.799Z,11.30
2022-12-29T10:28:59.044Z,17.67
2022-12-29T10:31:57.315Z,21.33
2022-12-29T10:34:28.955Z,11.70
2022-12-29T10:37:10.913Z,16.13
2022-12-29T10:39:45.223Z,15.93
2022-12-29T10:42:22.884Z,17.85
2022-12-29T10:44:52.767Z,9.68
2022-12-29T10:47:25.511Z,9.00
2022-12-29T10:49:52.817Z,7.60
2022-12-29T10:52:23.243Z,16.27
2022-12-29T10:54:52.837Z,14.70
2022-12-29T10:57:28.162Z,16.95
2022-12-29T10:59:55.191Z,13.38
2022-12-29T11:02:59.501Z,6.68
2022-12-29T11:05:45.260Z,11.75
2022-12-29T11:08:20.060Z,7.03
2022-12-29T11:10:58.024Z,17.88
2022-12-29T11:13:38.542Z,13.00
2022-12-29T11:16:06.872Z,20.08
2022-12-29T11:18:38.104Z,9.75
2022-12-29T11:21:24.139Z,18.58
2022-12-29T11:24:00.529Z,16.50
2022-12-29T11:26:34.415Z,8.73
2022-12-29T11:29:09.676Z,17.75
2022-12-29T11:31:51.125Z,20.92
2022-12-29T11:34:20.587Z,12.05
2022-12-29T11:36:49.799Z,9.00
2022-12-29T11:39:42.502Z,13.57
2022-12-29T11:42:30.305Z,10.50
2022-12-29T11:45:16.555Z,15.88
2022-12-29T11:48:20.997Z,16.55
2022-12-29T11:51:02.561Z,17.58
2022-12-29T11:53:51.226Z,11.30
2022-12-29T11:56:23.904Z,14.40
2022-12-29T11:58:51.741Z,15.95
2022-12-29T12:01:34.459Z,13.48
2022-12-29T12:06:37.641Z,16.45
2022-12-29T12:09:17.022Z,17.70
2022-12-29T12:11:49.630Z,19.05
2022-12-29T12:14:40.041Z,13.68
2022-12-29T12:17:48.445Z,18.67
2022-12-29T12:20:29.495Z,13.35
2022-12-29T12:23:15.938Z,14.43
2022-12-29T12:25:56.868Z,18.30
2022-12-29T12:28:55.305Z,14.82
2022-12-29T12:31:25.686Z,18.40
2022-12-29T12:34:04.101Z,12.38
2022-12-29T12:37:15.428Z,14.57
2022-12-29T12:40:09.734Z,14.25
2022-12-29T12:42:36.923Z,12.95
2022-12-29T12:45:41.909Z,18.88
2022-12-29T12:48:46.155Z,16.60
2022-12-29T12:51:28.581Z,14.13
2022-12-29T12:54:11.100Z,12.10
2022-12-29T12:56:52.161Z,14.95
2022-12-29T12:59:42.874Z,18.52
2022-12-29T13:02:15.147Z,15.02
2022-12-29T13:04:46.834Z,14.82
2022-12-29T13:07:30.015Z,14.85
2022-12-29T13:10:13.517Z,8.73
2022-12-29T13:13:27.141Z,9.85
2022-12-29T13:16:23.992Z,11.57
2022-12-29T13:22:06.002Z,14.52
2022-12-29T13:24:59.836Z,8.35
2022-12-29T13:28:06.039Z,11.45
2022-12-29T13:31:18.504Z,15.70
2022-12-29T13:38:21.051Z,16.08
2022-12-29T13:40:58.102Z,17.45
2022-12-29T13:43:45.656Z,15.35
2022-12-29T13:49:43.714Z,17.73
2022-12-29T13:52:19.344Z,21.02
2022-12-29T13:54:58.340Z,18.10
2022-12-29T13:57:49.401Z,14.80
2022-12-29T14:00:20.860Z,20.90
2022-12-29T14:05:26.058Z,15.18
2022-12-29T14:08:16.951Z,15.48
2022-12-29T14:10:50.337Z,15.23
2022-12-29T14:13:36.409Z,19.25
2022-12-29T14:16:09.244Z,16.92
2022-12-29T14:18:45.718Z,12.77
2022-12-29T14:21:15.630Z,13.32
2022-12-29T14:23:48.808Z,14.63
2022-12-29T14:26:18.466Z,12.60
2022-12-29T14:28:49.108Z,13.75
2022-12-29T14:31:16.072Z,15.77
2022-12-29T14:34:07.158Z,14.77
2022-12-29T14:36:41.145Z,16.48
2022-12-29T14:39:36.067Z,17.52
2022-12-29T14:42:11.942Z,16.85
2022-12-29T14:45:04.266Z,16.02
2022-12-29T14:47:41.196Z,18.58
2022-12-29T14:50:14.749Z,15.75
2022-12-29T14:53:04.044Z,20.95
2022-12-29T14:55:53.293Z,17.55
2022-12-29T14:58:46.160Z,9.13
2022-12-29T15:01:24.107Z,9.70
2022-12-29T15:03:55.568Z,9.60
2022-12-29T15:06:26.563Z,10.27
2022-12-29T15:09:25.775Z,10.68
2022-12-29T15:11:57.215Z,6.32
2022-12-29T15:14:37.667Z,11.52
2022-12-29T15:17:40.043Z,7.95
2022-12-29T15:20:29.656Z,16.23
2022-12-29T15:23:04.259Z,10.35
2022-12-29T15:25:32.332Z,8.10
2022-12-29T15:28:14.332Z,11.05
2022-12-29T15:30:56.587Z,14.25
2022-12-29T15:33:27.095Z,9.48
2022-12-29T15:35:56.507Z,9.57
2022-12-29T15:38:40.338Z,10.52
2022-12-29T15:41:57.416Z,11.20
2022-12-29T15:44:40.531Z,9.85
2022-12-29T15:47:20.535Z,10.40
2022-12-29T15:49:57.549Z,10.32
2022-12-29T15:52:25.299Z,12.10
2022-12-29T15:54:56.843Z,10.73
2022-12-29T15:57:30.612Z,7.72
2022-12-29T15:59:57.615Z,8.95
2022-12-29T16:02:25.649Z,14.00
2022-12-29T16:05:16.518Z,13.70
2022-12-29T16:07:53.646Z,15.43
2022-12-29T16:10:51.483Z,17.17
2022-12-29T16:13:24.979Z,13.20
2022-12-29T16:15:58.120Z,16.35
2022-12-29T16:18:36.413Z,14.95
2022-12-29T16:21:16.436Z,18.67
2022-12-29T16:23:48.347Z,24.10
2022-12-29T16:26:20.592Z,14.98
2022-12-29T16:28:56.432Z,13.48
2022-12-29T16:31:24.984Z,16.17
2022-12-29T16:33:56.533Z,13.00
2022-12-29T16:36:32.601Z,20.58
2022-12-29T16:39:22.710Z,14.73
2022-12-29T16:41:52.649Z,22.52
2022-12-29T16:44:31.871Z,17.08
2022-12-29T16:47:19.642Z,19.63
2022-12-29T16:49:54.740Z,19.17
2022-12-29T16:52:27.382Z,23.83
2022-12-29T16:57:37.807Z,22.17
2022-12-29T17:00:09.098Z,18.33
2022-12-29T17:02:54.978Z,21.80
2022-12-29T17:05:22.268Z,20.13
2022-12-29T17:07:52.979Z,20.67
2022-12-29T17:10:20.066Z,21.45
2022-12-29T17:12:49.584Z,21.38
2022-12-29T17:15:26.595Z,25.92
2022-12-29T17:17:57.128Z,18.15
2022-12-29T17:20:31.160Z,24.27
2022-12-29T17:23:00.214Z,19.40
2022-12-29T17:25:46.699Z,16.65
2022-12-29T17:28:24.652Z,24.52
2022-12-29T17:30:55.073Z,20.00
2022-12-29T17:33:23.617Z,18.17
2022-12-29T17:35:55.412Z,26.85
2022-12-29T17:38:33.903Z,17.50
2022-12-29T17:41:03.751Z,22.98
2022-12-29T17:43:36.751Z,21.70
2022-12-29T17:46:07.017Z,17.48
2022-12-29T17:48:33.970Z,16.33
2022-12-29T17:51:01.003Z,15.35
2022-12-29T17:53:29.748Z,11.52
2022-12-29T17:55:58.188Z,9.73
2022-12-29T17:58:27.799Z,8.45
2022-12-29T18:00:58.603Z,14.68
2022-12-29T18:03:34.407Z,17.60
2022-12-29T18:06:04.825Z,10.38
2022-12-29T18:08:32.907Z,17.48
2022-12-29T18:11:00.445Z,14.80
2022-12-29T18:13:39.297Z,12.52
2022-12-29T18:16:13.231Z,15.80
2022-12-29T18:18:41.383Z,18.48
2022-12-29T18:21:34.493Z,18.85
2022-12-29T18:24:01.356Z,15.73
2022-12-29T18:26:31.729Z,20.02
2022-12-29T18:29:01.023Z,23.30
2022-12-29T18:31:30.634Z,16.10
2022-12-29T18:33:59.662Z,18.98
2022-12-29T18:36:29.475Z,15.50
2022-12-29T18:38:57.203Z,17.92
2022-12-29T18:41:30.141Z,17.02
2022-12-29T18:43:59.444Z,21.85
2022-12-29T18:46:26.579Z,17.58
2022-12-29T18:48:54.498Z,20.25
2022-12-29T18:51:25.817Z,13.13
2022-12-29T18:54:05.015Z,18.08
2022-12-29T18:56:32.423Z,13.82
2022-12-29T18:58:59.773Z,14.48
2022-12-29T19:01:33.754Z,16.38
2022-12-29T19:04:01.895Z,19.55
2022-12-29T19:06:29.986Z,12.35
2022-12-29T19:08:58.191Z,14.90
2022-12-29T19:11:27.195Z,13.50
2022-12-29T19:13:57.871Z,14.00
2022-12-29T19:16:27.798Z,12.98
2022-12-29T19:19:08.842Z,17.25
2022-12-29T19:21:38.889Z,15.70
2022-12-29T19:24:10.967Z,18.67
2022-12-29T19:26:40.116Z,17.48
2022-12-29T19:29:14.382Z,18.38
2022-12-29T19:31:42.308Z,11.38
2022-12-29T19:34:16.241Z,15.32
2022-12-29T19:36:46.949Z,16.90
2022-12-29T19:39:18.311Z,25.52
2022-12-29T19:41:49.973Z,14.30
2022-12-29T19:44:17.332Z,24.10
2022-12-29T19:46:44.489Z,18.00
2022-12-29T19:51:55.280Z,19.27
2022-12-29T19:54:24.842Z,18.20
2022-12-29T19:56:55.094Z,20.52
2022-12-29T19:59:27.117Z,15.30
2022-12-29T20:01:55.295Z,17.90
2022-12-29T20:04:25.022Z,21.52
2022-12-29T20:06:52.268Z,18.30
2022-12-29T20:09:19.544Z,14.43
2022-12-29T20:11:46.606Z,27.23
2022-12-29T20:14:13.933Z,23.50
2022-12-29T20:17:09.101Z,24.67
2022-12-29T20:19:40.537Z,23.63
2022-12-29T20:22:11.271Z,19.92
2022-12-29T20:24:43.873Z,20.00
2022-12-29T20:27:16.983Z,23.25
2022-12-29T20:29:46.425Z,26.25
2022-12-29T20:32:17.768Z,19.08
2022-12-29T20:34:48.183Z,20.00
2022-12-29T20:37:15.991Z,20.08
2022-12-29T20:39:44.339Z,18.70
2022-12-29T20:42:12.645Z,23.08
2022-12-29T20:44:40.512Z,20.10
2022-12-29T20:47:08.345Z,22.90
2022-12-29T20:49:35.439Z,15.13
2022-12-29T20:52:07.133Z,21.13
2022-12-29T20:54:39.038Z,21.02
2022-12-29T20:57:06.987Z,22.20
2022-12-29T20:59:34.466Z,20.88
2022-12-29T21:02:02.019Z,24.05
2022-12-29T21:04:50.105Z,17.50
2022-12-29T21:07:20.321Z,22.85
2022-12-29T21:10:15.100Z,26.33
2022-12-29T21:12:46.804Z,27.10
2022-12-29T21:15:15.731Z,16.52
2022-12-29T21:18:00.429Z,17.38
2022-12-29T21:20:33.139Z,16.73
2022-12-29T21:25:39.658Z,16.20
2022-12-29T21:28:09.210Z,18.67
2022-12-29T21:30:36.771Z,20.85
2022-12-29T21:33:05.998Z,19.55
2022-12-29T21:35:39.315Z,23.33
2022-12-29T21:38:08.599Z,19.17
2022-12-29T21:40:40.741Z,26.95
2022-12-29T21:43:11.759Z,26.40
2022-12-29T21:45:38.749Z,15.13
2022-12-29T21:48:24.004Z,23.70
2022-12-29T21:51:12.540Z,21.85
2022-12-29T21:53:42.303Z,18.17
2022-12-29T21:56:18.062Z,24.30
2022-12-29T21:59:06.384Z,23.52
2022-12-29T22:01:56.785Z,35.05
2022-12-29T22:04:44.523Z,16.92
2022-12-29T22:07:31.088Z,17.70
2022-12-29T22:10:20.045Z,18.98
2022-12-29T22:13:00.464Z,18.55
2022-12-29T22:15:31.292Z,25.75
2022-12-29T22:17:59.197Z,15.52
2022-12-29T22:20:28.176Z,17.33
2022-12-29T22:22:58.418Z,17.50
2022-12-29T22:26:30.218Z,16.67
2022-12-29T22:28:59.233Z,23.48
2022-12-29T22:31:30.839Z,19.05
2022-12-29T22:34:02.978Z,20.00
2022-12-29T22:36:30.891Z,26.08
2022-12-29T22:38:58.960Z,19.70
2022-12-29T22:41:41.001Z,24.52
2022-12-29T22:44:14.364Z,19.73
2022-12-29T22:46:45.912Z,13.15
2022-12-29T22:49:14.250Z,20.48
2022-12-29T22:51:42.502Z,14.10
2022-12-29T22:54:13.545Z,15.85
2022-12-29T22:56:53.196Z,17.55
2022-12-29T22:59:25.477Z,16.90
2022-12-29T23:01:53.626Z,15.30
2022-12-29T23:07:15.333Z,15.02
2022-12-29T23:09:42.394Z,12.27
2022-12-29T23:12:09.421Z,19.98
2022-12-29T23:14:40.026Z,14.20
2022-12-29T23:17:11.456Z,16.70
2022-12-29T23:19:40.150Z,14.68
2022-12-29T23:22:10.287Z,17.25
2022-12-29T23:24:39.395Z,14.82
2022-12-29T23:27:06.397Z,11.18
2022-12-29T23:30:02.480Z,16.30
2022-12-29T23:32:57.665Z,18.90
2022-12-29T23:35:54.217Z,10.35
2022-12-29T23:38:23.838Z,23.40
2022-12-29T23:40:54.862Z,12.05
2022-12-29T23:43:28.100Z,21.98
2022-12-29T23:46:00.737Z,21.05
2022-12-29T23:48:29.997Z,23.83
2022-12-29T23:50:58.148Z,14.75
2022-12-29T23:53:25.188Z,19.10
2022-12-29T23:56:03.414Z,14.50
2022-12-29T23:58:31.677Z,24.02
